createdAt,value
2023-02-12T00:01:52.757Z,101717.03
2023-02-12T00:04:21.874Z,101720.69
2023-02-12T00:06:50.646Z,101724.16
2023-02-12T00:09:19.735Z,101718.97
2023-02-12T00:11:49.893Z,101733.84
2023-02-12T00:14:19.042Z,101728.66
2023-02-12T00:16:47.841Z,101736.47
2023-02-12T00:19:16.916Z,101737.38
2023-02-12T00:21:45.743Z,101749.59
2023-02-12T00:24:14.932Z,101766.00
2023-02-12T00:26:43.739Z,101765.16
2023-02-12T00:29:14.206Z,101777.22
2023-02-12T00:31:43.184Z,101782.41
2023-02-12T00:34:13.502Z,101777.44
2023-02-12T00:36:43.105Z,101783.47
2023-02-12T00:39:13.063Z,101780.22
2023-02-12T00:41:42.053Z,101782.03
2023-02-12T00:44:11.108Z,101786.28
2023-02-12T00:46:41.947Z,101792.38
2023-02-12T00:49:11.374Z,101799.31
2023-02-12T00:51:40.128Z,101810.63
2023-02-12T00:54:11.340Z,101811.50
2023-02-12T00:56:40.299Z,101815.06
2023-02-12T00:59:09.663Z,101803.78
2023-02-12T01:01:38.513Z,101818.50
2023-02-12T01:04:09.042Z,101808.03
2023-02-12T01:06:37.913Z,101815.00
2023-02-12T01:09:07.153Z,101826.22
2023-02-12T01:11:36.149Z,101835.78
2023-02-12T01:14:06.152Z,101828.00
2023-02-12T01:16:36.765Z,101845.25
2023-02-12T01:19:06.515Z,101840.94
2023-02-12T01:21:37.012Z,101836.69
2023-02-12T01:24:07.239Z,101849.66
2023-02-12T01:26:36.160Z,101854.03
2023-02-12T01:29:08.428Z,101857.59
2023-02-12T01:31:40.600Z,101860.97
2023-02-12T01:34:12.057Z,101859.22
2023-02-12T01:36:42.301Z,101870.50
2023-02-12T01:39:13.754Z,101868.06
2023-02-12T01:41:45.473Z,101869.69
2023-02-12T01:44:21.197Z,101861.97
2023-02-12T01:46:55.959Z,101869.66
2023-02-12T01:49:33.005Z,101874.84
2023-02-12T01:52:11.899Z,101873.09
2023-02-12T01:54:42.961Z,101869.63
2023-02-12T01:57:15.636Z,101874.03
2023-02-12T01:59:50.462Z,101888.69
2023-02-12T02:02:22.358Z,101886.06
2023-02-12T02:04:58.693Z,101895.53
2023-02-12T02:07:29.628Z,101901.59
2023-02-12T02:10:00.385Z,101910.22
2023-02-12T02:12:50.423Z,101911.09
2023-02-12T02:15:19.812Z,101908.47
2023-02-12T02:18:00.399Z,101916.28
2023-02-12T02:21:27.373Z,101928.44
2023-02-12T02:25:02.403Z,101929.31
2023-02-12T02:27:43.367Z,101925.03
2023-02-12T02:30:45.404Z,101939.66
2023-02-12T02:33:33.361Z,101948.41
2023-02-12T02:36:20.500Z,101964.81
2023-02-12T02:38:57.338Z,101960.47
2023-02-12T02:41:34.807Z,101960.59
2023-02-12T02:44:12.895Z,101965.00
2023-02-12T02:46:48.860Z,101978.00
2023-02-12T02:49:24.071Z,101973.63
2023-02-12T02:52:03.795Z,101975.28
2023-02-12T02:54:38.934Z,101981.31
2023-02-12T02:57:13.149Z,101998.66
2023-02-12T02:59:50.472Z,101996.06
2023-02-12T03:02:29.189Z,102008.22
2023-02-12T03:05:05.468Z,102010.03
2023-02-12T03:07:39.823Z,102018.78
2023-02-12T03:10:17.087Z,102033.44
2023-02-12T03:12:55.089Z,102036.94
2023-02-12T03:15:35.024Z,102047.34
2023-02-12T03:18:11.162Z,102057.75
2023-02-12T03:20:48.820Z,102064.72
2023-02-12T03:23:26.336Z,102067.34
2023-02-12T03:26:04.962Z,102067.38
2023-02-12T03:28:37.883Z,102077.78
2023-02-12T03:31:21.023Z,102066.47
2023-02-12T03:34:08.614Z,102074.28
2023-02-12T03:36:48.089Z,102086.50
2023-02-12T03:39:29.648Z,102090.78
2023-02-12T03:42:07.744Z,102099.38
2023-02-12T03:44:52.048Z,102095.88
2023-02-12T03:47:29.131Z,102098.41
2023-02-12T03:50:07.987Z,102100.16
2023-02-12T03:52:37.988Z,102107.88
2023-02-12T03:55:08.409Z,102114.81
2023-02-12T03:57:44.111Z,102129.56
2023-02-12T04:00:19.311Z,102131.25
2023-02-12T04:02:50.124Z,102134.69
2023-02-12T04:05:24.660Z,102137.31
2023-02-12T04:07:56.736Z,102144.25
2023-02-12T04:10:37.120Z,102126.06
2023-02-12T04:13:16.816Z,102129.59
2023-02-12T04:16:14.959Z,102137.38
2023-02-12T04:18:49.476Z,102145.19
2023-02-12T04:21:39.391Z,102155.56
2023-02-12T04:24:19.995Z,102148.56
2023-02-12T04:26:56.257Z,102151.22
2023-02-12T04:29:36.822Z,102151.22
2023-02-12T04:32:16.158Z,102157.34
2023-02-12T04:34:53.296Z,102159.09
2023-02-12T04:37:29.922Z,102155.63
2023-02-12T04:40:01.838Z,102155.69
2023-02-12T04:42:30.760Z,102160.03
2023-02-12T04:44:59.927Z,102155.72
2023-02-12T04:47:28.828Z,102157.47
2023-02-12T04:49:57.942Z,102166.09
2023-02-12T04:52:28.095Z,102173.03
2023-02-12T04:54:57.163Z,102176.50
2023-02-12T04:57:25.988Z,102173.03
2023-02-12T04:59:55.126Z,102183.44
2023-02-12T05:02:23.969Z,102186.06
2023-02-12T05:04:53.233Z,102188.69
2023-02-12T05:07:22.085Z,102201.66
2023-02-12T05:09:52.661Z,102207.75
2023-02-12T05:12:21.632Z,102203.41
2023-02-12T05:14:50.679Z,102212.94
2023-02-12T05:17:19.460Z,102212.06
2023-02-12T05:19:49.680Z,102219.88
2023-02-12T05:22:18.768Z,102222.47
2023-02-12T05:24:47.913Z,102225.06
2023-02-12T05:27:18.126Z,102225.09
2023-02-12T05:29:47.154Z,102230.31
2023-02-12T05:32:16.047Z,102238.94
2023-02-12T05:34:45.213Z,102242.41
2023-02-12T05:37:13.936Z,102241.56
2023-02-12T05:39:43.111Z,102255.41
2023-02-12T05:42:11.908Z,102255.41
2023-02-12T05:44:42.303Z,102264.94
2023-02-12T05:47:11.041Z,102266.63
2023-02-12T05:49:40.083Z,102275.28
2023-02-12T05:52:08.987Z,102271.81
2023-02-12T05:54:38.125Z,102283.13
2023-02-12T05:57:08.569Z,102276.16
2023-02-12T05:59:37.719Z,102280.50
2023-02-12T06:02:07.909Z,102290.91
2023-02-12T06:04:36.954Z,102293.50
2023-02-12T06:07:07.323Z,102303.00
2023-02-12T06:09:36.881Z,102309.06
2023-02-12T06:12:06.282Z,102316.88
2023-02-12T06:14:35.353Z,102317.75
2023-02-12T06:17:04.197Z,102323.78
2023-02-12T06:19:34.704Z,102321.19
2023-02-12T06:22:03.553Z,102328.09
2023-02-12T06:24:32.830Z,102328.06
2023-02-12T06:27:01.699Z,102330.66
2023-02-12T06:29:30.991Z,102336.72
2023-02-12T06:31:59.906Z,102333.28
2023-02-12T06:34:29.151Z,102327.16
2023-02-12T06:36:59.435Z,102328.91
2023-02-12T06:39:28.487Z,102335.88
2023-02-12T06:41:57.393Z,102333.28
2023-02-12T06:44:26.511Z,102343.63
2023-02-12T06:46:55.354Z,102347.06
2023-02-12T06:49:24.472Z,102338.41
2023-02-12T06:51:53.239Z,102340.09
2023-02-12T06:54:23.687Z,102342.69
2023-02-12T06:56:52.473Z,102343.53
2023-02-12T06:59:21.579Z,102350.44
2023-02-12T07:01:50.363Z,102352.16
2023-02-12T07:04:19.503Z,102353.88
2023-02-12T07:06:48.306Z,102363.44
2023-02-12T07:09:17.417Z,102360.81
2023-02-12T07:11:47.545Z,102366.00
2023-02-12T07:14:17.868Z,102369.44
2023-02-12T07:16:46.909Z,102376.34
2023-02-12T07:19:16.783Z,102375.50
2023-02-12T07:21:45.655Z,102383.28
2023-02-12T07:24:16.085Z,102383.28
2023-02-12T07:26:45.098Z,102380.69
2023-02-12T07:29:15.909Z,102391.09
2023-02-12T07:31:45.063Z,102378.94
2023-02-12T07:34:14.313Z,102376.34
2023-02-12T07:36:43.281Z,102377.16
2023-02-12T07:39:13.178Z,102374.53
2023-02-12T07:41:41.997Z,102367.59
2023-02-12T07:44:14.902Z,102381.44
2023-02-12T07:46:48.336Z,102378.84
2023-02-12T07:49:21.591Z,102378.00
2023-02-12T07:51:51.529Z,102381.44
2023-02-12T07:54:20.632Z,102385.75
2023-02-12T07:56:49.448Z,102385.63
2023-02-12T07:59:21.698Z,102394.25
2023-02-12T08:01:53.045Z,102400.28
2023-02-12T08:04:25.578Z,102402.97
2023-02-12T08:06:57.103Z,102409.84
2023-02-12T08:09:30.943Z,102413.22
2023-02-12T08:11:59.898Z,102425.25
2023-02-12T08:14:30.913Z,102425.19
2023-02-12T08:16:59.697Z,102429.56
2023-02-12T08:19:28.817Z,102428.69
2023-02-12T08:21:58.918Z,102429.59
2023-02-12T08:24:28.159Z,102431.31
2023-02-12T08:26:57.784Z,102433.00
2023-02-12T08:29:30.878Z,102419.88
2023-02-12T08:32:03.402Z,102432.88
2023-02-12T08:34:34.839Z,102431.03
2023-02-12T08:37:06.523Z,102427.38
2023-02-12T08:39:35.671Z,102432.41
2023-02-12T08:42:04.546Z,102428.00
2023-02-12T08:44:35.471Z,102428.81
2023-02-12T08:47:06.044Z,102432.22
2023-02-12T08:49:35.160Z,102427.91
2023-02-12T08:52:03.978Z,102424.41
2023-02-12T08:54:33.586Z,102416.56
2023-02-12T08:57:04.506Z,102414.63
2023-02-12T08:59:35.007Z,102417.97
2023-02-12T09:02:08.704Z,102418.66
2023-02-12T09:04:37.937Z,102416.66
2023-02-12T09:07:08.898Z,102433.06
2023-02-12T09:09:39.788Z,102436.34
2023-02-12T09:12:08.735Z,102434.41
2023-02-12T09:14:39.707Z,102437.16
2023-02-12T09:17:08.499Z,102438.84
2023-02-12T09:19:37.597Z,102442.59
2023-02-12T09:22:06.352Z,102444.84
2023-02-12T09:24:35.433Z,102441.50
2023-02-12T09:27:04.454Z,102444.22
2023-02-12T09:29:33.567Z,102443.09
2023-02-12T09:32:06.670Z,102444.22
2023-02-12T09:34:36.555Z,102455.34
2023-02-12T09:37:05.382Z,102459.28
2023-02-12T09:39:34.628Z,102454.75
2023-02-12T09:42:34.809Z,102470.09
2023-02-12T09:45:17.740Z,102481.09
2023-02-12T09:48:01.080Z,102471.47
2023-02-12T09:50:44.158Z,102475.16
2023-02-12T09:53:17.746Z,102480.03
2023-02-12T09:55:47.359Z,102484.56
2023-02-12T09:58:25.390Z,102482.41
2023-02-12T10:00:55.008Z,102487.50
2023-02-12T10:03:27.096Z,102475.78
2023-02-12T10:06:05.334Z,102482.56
2023-02-12T10:09:03.417Z,102479.56
2023-02-12T10:11:54.811Z,102483.91
2023-02-12T10:15:05.882Z,102477.72
2023-02-12T10:17:44.032Z,102474.66
2023-02-12T10:21:03.292Z,102468.34
2023-02-12T10:24:12.599Z,102464.69
2023-02-12T10:26:47.646Z,102473.34
2023-02-12T10:29:23.080Z,102472.16
2023-02-12T10:31:58.571Z,102472.53
2023-02-12T10:34:34.002Z,102471.66
2023-02-12T10:37:14.223Z,102475.53
2023-02-12T10:39:49.859Z,102468.28
2023-02-12T10:42:27.200Z,102483.63
2023-02-12T10:44:56.393Z,102479.59
2023-02-12T10:47:26.860Z,102470.31
2023-02-12T10:50:01.403Z,102473.78
2023-02-12T10:52:43.589Z,102473.19
2023-02-12T10:55:31.011Z,102472.53
2023-02-12T10:58:02.307Z,102474.06
2023-02-12T11:00:34.936Z,102462.69
2023-02-12T11:03:19.746Z,102463.38
2023-02-12T11:05:50.382Z,102476.50
2023-02-12T11:08:36.573Z,102476.75
2023-02-12T11:11:10.997Z,102472.66
2023-02-12T11:13:45.881Z,102466.75
2023-02-12T11:16:15.089Z,102474.97
2023-02-12T11:18:44.498Z,102468.66
2023-02-12T11:21:14.609Z,102469.22
2023-02-12T11:23:46.213Z,102473.38
2023-02-12T11:26:29.012Z,102475.38
2023-02-12T11:29:00.777Z,102474.78
2023-02-12T11:31:32.478Z,102474.31
2023-02-12T11:34:18.865Z,102483.16
2023-02-12T11:36:51.572Z,102472.88
2023-02-12T11:39:27.818Z,102470.94
2023-02-12T11:42:00.831Z,102464.63
2023-02-12T11:44:36.224Z,102458.94
2023-02-12T11:47:10.675Z,102455.53
2023-02-12T11:49:44.574Z,102453.06
2023-02-12T11:52:22.424Z,102452.69
2023-02-12T11:54:58.056Z,102447.59
2023-02-12T11:57:37.989Z,102455.09
2023-02-12T12:00:17.038Z,102455.09
2023-02-12T12:03:02.626Z,102460.47
2023-02-12T12:05:39.497Z,102459.41
2023-02-12T12:08:19.577Z,102447.56
2023-02-12T12:10:56.602Z,102446.06
2023-02-12T12:13:34.922Z,102452.31
2023-02-12T12:16:32.164Z,102457.53
2023-02-12T12:19:29.759Z,102457.25
2023-02-12T12:22:06.499Z,102456.03
2023-02-12T12:24:46.312Z,102447.84
2023-02-12T12:27:50.378Z,102436.72
2023-02-12T12:30:32.734Z,102419.22
2023-02-12T12:33:07.829Z,102427.41
2023-02-12T12:35:53.589Z,102432.91
2023-02-12T12:38:40.552Z,102432.38
2023-02-12T12:41:27.109Z,102434.59
2023-02-12T12:44:20.330Z,102425.88
2023-02-12T12:47:11.529Z,102427.72
2023-02-12T12:50:01.462Z,102422.47
2023-02-12T12:53:13.147Z,102415.47
2023-02-12T12:56:20.341Z,102419.50
2023-02-12T12:59:22.203Z,102418.06
2023-02-12T13:02:34.197Z,102422.78
2023-02-12T13:05:53.465Z,102423.22
2023-02-12T13:08:41.074Z,102424.22
2023-02-12T13:11:28.175Z,102416.63
2023-02-12T13:14:18.971Z,102405.44
2023-02-12T13:16:56.976Z,102411.78
2023-02-12T13:19:44.336Z,102416.97
2023-02-12T13:22:26.418Z,102409.13
2023-02-12T13:25:08.151Z,102416.88
2023-02-12T13:27:42.372Z,102415.97
2023-02-12T13:30:25.067Z,102420.41
2023-02-12T13:33:09.423Z,102422.34
2023-02-12T13:35:44.577Z,102420.66
2023-02-12T13:38:23.711Z,102418.06
2023-02-12T13:41:00.902Z,102417.22
2023-02-12T13:43:44.706Z,102419.06
2023-02-12T13:46:30.607Z,102416.47
2023-02-12T13:49:18.757Z,102417.41
2023-02-12T13:51:51.603Z,102421.72
2023-02-12T13:54:48.635Z,102410.41
2023-02-12T13:57:21.047Z,102412.06
2023-02-12T13:59:53.826Z,102403.41
2023-02-12T14:02:45.989Z,102404.19
2023-02-12T14:05:26.484Z,102399.91
2023-02-12T14:07:59.104Z,102402.56
2023-02-12T14:10:36.312Z,102409.44
2023-02-12T14:13:19.109Z,102403.34
2023-02-12T14:15:52.717Z,102411.25
2023-02-12T14:18:33.546Z,102411.25
2023-02-12T14:21:36.510Z,102412.06
2023-02-12T14:24:51.750Z,102409.53
2023-02-12T14:27:37.422Z,102396.53
2023-02-12T14:30:31.883Z,102407.84
2023-02-12T14:33:20.697Z,102404.44
2023-02-12T14:36:15.680Z,102406.22
2023-02-12T14:39:24.696Z,102404.53
2023-02-12T14:41:55.013Z,102404.53
2023-02-12T14:44:56.258Z,102400.31
2023-02-12T14:47:53.104Z,102402.09
2023-02-12T14:50:29.620Z,102396.03
2023-02-12T14:53:14.830Z,102405.56
2023-02-12T14:55:49.083Z,102402.94
2023-02-12T14:58:22.443Z,102407.31
2023-02-12T15:00:56.339Z,102406.47
2023-02-12T15:03:39.998Z,102406.50
2023-02-12T15:06:17.650Z,102412.56
2023-02-12T15:08:57.276Z,102407.41
2023-02-12T15:11:42.297Z,102406.66
2023-02-12T15:14:21.329Z,102414.47
2023-02-12T15:17:00.101Z,102406.72
2023-02-12T15:19:44.586Z,102410.25
2023-02-12T15:22:24.275Z,102410.28
2023-02-12T15:24:54.493Z,102413.81
2023-02-12T15:27:23.787Z,102414.72
2023-02-12T15:29:55.599Z,102418.22
2023-02-12T15:32:29.880Z,102417.41
2023-02-12T15:34:58.792Z,102426.09
2023-02-12T15:37:31.565Z,102426.19
2023-02-12T15:40:05.732Z,102427.03
2023-02-12T15:42:37.871Z,102426.19
2023-02-12T15:45:24.858Z,102430.56
2023-02-12T15:48:08.236Z,102439.22
2023-02-12T15:50:48.297Z,102422.75
2023-02-12T15:53:19.227Z,102432.31
2023-02-12T15:55:51.696Z,102434.97
2023-02-12T15:58:25.401Z,102428.91
2023-02-12T16:00:56.248Z,102434.13
2023-02-12T16:03:28.928Z,102435.03
2023-02-12T16:06:03.965Z,102419.44
2023-02-12T16:08:35.781Z,102422.06
2023-02-12T16:11:14.131Z,102418.69
2023-02-12T16:13:48.185Z,102416.94
2023-02-12T16:16:27.838Z,102411.75
2023-02-12T16:19:18.009Z,102405.75
2023-02-12T16:21:51.296Z,102410.13
2023-02-12T16:24:31.071Z,102405.78
2023-02-12T16:27:10.221Z,102404.09
2023-02-12T16:29:46.737Z,102410.22
2023-02-12T16:32:31.729Z,102411.09
2023-02-12T16:35:06.843Z,102415.44
2023-02-12T16:37:46.666Z,102409.44
2023-02-12T16:40:31.629Z,102402.50
2023-02-12T16:43:24.094Z,102407.72
2023-02-12T16:46:04.337Z,102400.81
2023-02-12T16:48:41.503Z,102399.94
2023-02-12T16:51:25.236Z,102399.97
2023-02-12T16:53:57.616Z,102398.25
2023-02-12T16:56:30.625Z,102390.47
2023-02-12T16:59:02.841Z,102399.13
2023-02-12T17:01:35.674Z,102397.41
2023-02-12T17:04:09.310Z,102395.69
2023-02-12T17:06:38.400Z,102387.91
2023-02-12T17:09:07.200Z,102392.22
2023-02-12T17:11:36.279Z,102393.09
2023-02-12T17:14:06.449Z,102387.06
2023-02-12T17:16:35.853Z,102394.84
2023-02-12T17:19:04.714Z,102388.81
2023-02-12T17:21:39.629Z,102387.94
2023-02-12T17:24:17.370Z,102404.38
2023-02-12T17:26:46.499Z,102402.69
2023-02-12T17:29:16.610Z,102404.41
2023-02-12T17:31:45.862Z,102400.97
2023-02-12T17:34:16.475Z,102411.34
2023-02-12T17:36:45.599Z,102410.50
2023-02-12T17:39:16.924Z,102413.09
2023-02-12T17:41:46.338Z,102409.63
2023-02-12T17:44:16.628Z,102406.19
2023-02-12T17:46:45.766Z,102416.56
2023-02-12T17:49:14.778Z,102422.59
2023-02-12T17:51:43.899Z,102432.13
2023-02-12T17:54:13.980Z,102435.59
2023-02-12T17:56:43.083Z,102434.75
2023-02-12T17:59:12.003Z,102432.13
2023-02-12T18:01:42.549Z,102422.59
2023-02-12T18:04:11.386Z,102418.28
2023-02-12T18:06:40.537Z,102437.31
2023-02-12T18:09:09.373Z,102433.84
2023-02-12T18:11:40.505Z,102416.53
2023-02-12T18:14:09.500Z,102419.13
2023-02-12T18:16:38.674Z,102418.25
2023-02-12T18:19:08.885Z,102419.94
2023-02-12T18:21:38.815Z,102424.25
2023-02-12T18:24:08.814Z,102419.06
2023-02-12T18:26:37.983Z,102402.59
2023-02-12T18:29:06.822Z,102410.34
2023-02-12T18:31:36.097Z,102399.91
2023-02-12T18:34:08.391Z,102397.31
2023-02-12T18:36:37.800Z,102400.75
2023-02-12T18:39:06.706Z,102394.63
2023-02-12T18:41:36.429Z,102393.75
2023-02-12T18:44:05.661Z,102385.91
2023-02-12T18:46:34.784Z,102384.16
2023-02-12T18:49:05.800Z,102380.69
2023-02-12T18:51:39.899Z,102382.38
2023-02-12T18:54:12.764Z,102385.81
2023-02-12T18:56:44.799Z,102381.44
2023-02-12T18:59:16.052Z,102390.97
2023-02-12T19:01:47.274Z,102383.13
2023-02-12T19:04:19.100Z,102385.69
2023-02-12T19:06:52.411Z,102373.53
2023-02-12T19:09:24.651Z,102383.03
2023-02-12T19:11:58.847Z,102379.56
2023-02-12T19:14:29.411Z,102380.38
2023-02-12T19:16:58.602Z,102377.78
2023-02-12T19:19:28.378Z,102376.91
2023-02-12T19:21:58.974Z,102367.34
2023-02-12T19:24:37.760Z,102363.84
2023-02-12T19:27:13.852Z,102369.06
2023-02-12T19:29:42.805Z,102366.44
2023-02-12T19:32:12.034Z,102362.97
2023-02-12T19:34:40.880Z,102367.22
2023-02-12T19:37:13.012Z,102359.38
2023-02-12T19:39:42.303Z,102359.31
2023-02-12T19:42:12.700Z,102361.91
2023-02-12T19:44:42.326Z,102343.66
2023-02-12T19:47:11.603Z,102347.06
2023-02-12T19:49:41.449Z,102341.06
2023-02-12T19:52:11.918Z,102342.72
2023-02-12T19:54:40.773Z,102333.19
2023-02-12T19:57:11.455Z,102331.47
2023-02-12T19:59:42.136Z,102334.91
2023-02-12T20:02:11.562Z,102327.88
2023-02-12T20:04:40.655Z,102334.84
2023-02-12T20:07:11.489Z,102322.66
2023-02-12T20:09:40.365Z,102322.53
2023-02-12T20:12:09.527Z,102330.31
2023-02-12T20:14:38.355Z,102336.38
2023-02-12T20:17:07.674Z,102329.38
2023-02-12T20:19:36.552Z,102330.28
2023-02-12T20:22:05.652Z,102320.69
2023-02-12T20:24:36.332Z,102316.28
2023-02-12T20:27:05.916Z,102315.44
2023-02-12T20:29:34.725Z,102317.13
2023-02-12T20:32:03.842Z,102321.47
2023-02-12T20:34:42.476Z,102319.69
2023-02-12T20:37:18.866Z,102320.53
2023-02-12T20:39:49.182Z,102318.75
2023-02-12T20:42:18.369Z,102308.34
2023-02-12T20:44:47.366Z,102311.72
2023-02-12T20:47:16.501Z,102296.88
2023-02-12T20:49:45.296Z,102300.41
2023-02-12T20:52:14.543Z,102297.84
2023-02-12T20:54:43.510Z,102304.72
2023-02-12T20:57:14.146Z,102291.69
2023-02-12T20:59:43.227Z,102290.84
2023-02-12T21:02:13.309Z,102289.97
2023-02-12T21:04:42.107Z,102282.00
2023-02-12T21:07:11.314Z,102287.19
2023-02-12T21:09:40.112Z,102288.97
2023-02-12T21:12:09.230Z,102283.75
2023-02-12T21:14:39.640Z,102287.19
2023-02-12T21:17:08.737Z,102291.41
2023-02-12T21:19:37.532Z,102287.94
2023-02-12T21:22:06.760Z,102282.75
2023-02-12T21:24:35.770Z,102284.47
2023-02-12T21:27:05.227Z,102282.75
2023-02-12T21:29:34.113Z,102279.16
2023-02-12T21:32:04.735Z,102286.16
2023-02-12T21:34:33.809Z,102288.78
2023-02-12T21:37:02.922Z,102286.19
2023-02-12T21:39:31.957Z,102284.56
2023-02-12T21:42:04.128Z,102286.34
2023-02-12T21:44:35.840Z,102288.00
2023-02-12T21:47:07.454Z,102287.19
2023-02-12T21:49:36.427Z,102285.53
2023-02-12T21:52:07.409Z,102280.25
2023-02-12T21:54:36.295Z,102285.59
2023-02-12T21:57:05.079Z,102274.31
2023-02-12T21:59:34.181Z,102276.88
2023-02-12T22:02:02.969Z,102275.22
2023-02-12T22:04:33.449Z,102268.22
2023-02-12T22:07:03.471Z,102266.44
2023-02-12T22:09:32.898Z,102264.59
2023-02-12T22:12:01.829Z,102266.28
2023-02-12T22:14:31.195Z,102266.28
2023-02-12T22:17:00.121Z,102267.19
2023-02-12T22:19:29.242Z,102266.22
2023-02-12T22:21:59.403Z,102259.31
2023-02-12T22:24:28.605Z,102266.22
2023-02-12T22:26:57.359Z,102256.69
2023-02-12T22:29:26.450Z,102263.53
2023-02-12T22:31:55.565Z,102261.81
2023-02-12T22:34:24.761Z,102257.44
2023-02-12T22:36:53.591Z,102268.69
2023-02-12T22:39:24.195Z,102257.38
2023-02-12T22:41:52.987Z,102253.91
2023-02-12T22:44:22.205Z,102248.66
2023-02-12T22:46:51.223Z,102252.03
2023-02-12T22:49:20.565Z,102243.38
2023-02-12T22:51:49.390Z,102246.06
2023-02-12T22:54:19.868Z,102241.66
2023-02-12T22:56:53.415Z,102239.03
2023-02-12T22:59:22.556Z,102226.78
2023-02-12T23:01:51.418Z,102224.09
2023-02-12T23:04:20.929Z,102225.84
2023-02-12T23:06:49.952Z,102225.81
2023-02-12T23:09:19.834Z,102226.59
2023-02-12T23:11:49.314Z,102217.88
2023-02-12T23:14:20.140Z,102216.13
2023-02-12T23:16:49.060Z,102205.69
2023-02-12T23:19:18.423Z,102211.75
2023-02-12T23:21:47.226Z,102201.41
2023-02-12T23:24:16.567Z,102200.50
2023-02-12T23:26:45.431Z,102192.63
2023-02-12T23:29:15.630Z,102197.81
2023-02-12T23:31:45.890Z,102199.44
2023-02-12T23:34:15.075Z,102195.91
2023-02-12T23:36:43.897Z,102184.53
2023-02-12T23:39:14.473Z,102182.00
2023-02-12T23:41:43.538Z,102181.06
2023-02-12T23:44:14.080Z,102174.09
2023-02-12T23:46:43.072Z,102167.91
2023-02-12T23:49:13.556Z,102173.06
2023-02-12T23:51:42.443Z,102162.78
2023-02-12T23:54:12.007Z,102164.34
2023-02-12T23:56:40.918Z,102153.00
2023-02-12T23:59:10.007Z,102153.91
